Abegall, Kentucky
Current Conditions -  °F | °C
As of 3:55 AM on Saturday 22 Nov 2014 (Local Time) from KFGX Reporting Station
Overcast Overcast  
Wind Chill: 25°   Ceiling: 8000
Heat Index: 32°   Visibility: 10mi
Dew Point: 16°   Wind: 8mph
Humidity: 52%   Direction: 170°S
Pressure: 30.35"   Gusts: NA
Location:  38.6546°N, 83.9578°W
Report Text: KFGX 220855Z AUTO 17007KT 10SM SCT042 OVC080 00/M09 A3035 RMK AO2 T00021087
Loading
Personal Weather Stations






























Interactive Weather Map New forecast layout! Learn more

10-Day Weather Forecast

Advertisements
Track Severe Weather on mobile